North Spring Valley, Nevada Weather observations

Data are for 10 minute period ending at time listed.
 Day   Time   Solar   Ave.   Ave.  Ave.  Vector  Max.   Baro.   Total    
  of    of     Rad.   Air    Rel.  Wind   Wind   Wind  Press.  Precip.   
Year   Day            Temp.  Hum.  Speed  Dir.   Gust                    
2015   (PST)  Kw/m2    F      %     mph   deg.    mph    mb.     in.     
-------------------------------------------------------------------------
 214    0:00   0.00   69.7    37    1.2    46     2.9   829.4    0.00 
 214    0:10   0.00   69.5    37    1.0    39     3.5   829.4    0.00 
 214    0:20   0.00   69.5    38    1.5   341     2.6   829.4    0.00 
 214    0:30   0.00   67.1    45    3.8   299     5.0   829.3    0.00 
 214    0:40   0.00   66.2    45    2.5   323     4.5   829.3    0.00 
 214    0:50   0.00   68.3    39    2.5     1     6.8   829.2    0.00 
 214    1:00   0.00   70.3    36    3.0   137     7.6   829.2    0.00 
 214    1:10   0.00   69.2    38    2.5   249     5.3   829.2    0.00 
 214    1:20   0.00   69.6    36    0.9    93     2.2   829.0    0.00 
 214    1:30   0.00   70.2    35    1.4   123     5.8   829.0    0.00 
 214    1:40   0.00   68.3    42    2.8   268     4.2   829.0    0.00 
 214    1:50   0.00   66.7    43    4.1   300     4.7   828.9    0.00 
 214    2:00   0.00   67.4    41    2.7   277     3.7   828.7    0.00 
 214    2:10   0.00   67.8    38    1.7   256     2.5   828.7    0.00 
 214    2:20   0.00   68.6    38    2.1   251     4.1   828.7    0.00 
 214    2:30   0.00   65.8    43    3.5   260     4.5   828.7    0.00 
 214    2:40   0.00   65.6    44    3.8   255     5.0   828.6    0.00 
 214    2:50   0.00   67.2    40    2.2   240     3.7   828.6    0.00 
 214    3:00   0.00   66.1    42    1.6   325     3.1   828.4    0.00 
 214    3:10   0.00   67.4    39    2.0   315     3.5   828.4    0.00 
 214    3:20   0.00   65.2    45    3.1   283     5.0   828.4    0.00 
 214    3:30   0.00   67.6    38    1.8    28     5.1   828.4    0.00 
 214    3:40   0.00   68.4    37    1.3    53     2.9   828.6    0.00 
 214    3:50   0.00   67.3    40    2.6   266     4.3   828.6    0.00 
 214    4:00   0.00   65.2    44    3.7   264     4.5   828.7    0.00 
 214    4:10   0.00   64.2    46    4.3   250     5.0   828.6    0.00 
 214    4:20   0.00   63.8    45    3.2   242     3.9   828.7    0.00 
 214    4:30   0.00   64.2    47    3.9   253     4.9   828.8    0.00 
 214    4:40   0.00   65.5    42    3.0   255     5.5   828.8    0.00 
 214    4:50   0.01   67.6    37    2.6   246     5.0   828.8    0.00 
 214    5:00   0.02   67.6    36    1.6   209     2.9   829.0    0.00 
 214    5:10   0.03   68.1    35    2.6   198     3.1   829.0    0.00 
 214    5:20   0.04   68.1    37    3.6   213     4.6   829.1    0.00 
 214    5:30   0.05   66.7    41    3.1   232     4.5   829.0    0.00 
 214    5:40   0.07   67.2    42    2.8   259     3.6   829.0    0.00 
 214    5:50   0.08   67.2    45    2.0   334     2.9   828.9    0.00 
 214    6:00   0.09   66.0    48    1.7    24     2.9   828.9    0.00 
 214    6:10   0.07   65.4    47    1.1     5     2.9   829.0    0.00 
 214    6:20   0.09   65.3    49    3.1   322     4.2   829.1    0.00 
 214    6:30   0.12   65.9    51    1.8   303     3.0   829.1    0.00 
 214    6:40   0.22   67.4    50    2.7   325     3.8   829.1    0.00 
 214    6:50   0.34   71.7    41    2.5   340     3.9   829.1    0.00 
 214    7:00   0.30   74.0    38    1.5   323     3.1   829.0    0.00 
 214    7:10   0.27   75.3    36    1.7    50     3.1   829.0    0.00 
 214    7:20   0.27   75.0    37    2.1    29     3.4   828.9    0.00 
 214    7:30   0.27   75.5    34    1.0    18     2.6   828.9    0.00 
 214    7:40   0.32   76.9    31    0.0    23     0.6   828.8    0.00 
 214    7:50   0.32   77.1    29    0.8    58     2.2   828.8    0.00 
 214    8:00   0.35   77.0    32    2.1    52     3.4   828.8    0.00 
 214    8:10   0.28   77.2    34    1.8    11     2.6   828.8    0.00 
 214    8:20   0.30   77.3    32    1.7   355     2.9   828.7    0.00 
 214    8:30   0.33   77.6    32    3.0   356     6.0   828.7    0.00 
 214    8:40   0.38   77.6    31    3.8   359     6.6   828.6    0.00 
 214    8:50   0.41   78.1    30    4.6   334     7.7   828.4    0.00 
 214    9:00   0.43   78.7    29    4.5   322     8.1   828.4    0.00 
 214    9:10   0.46   79.3    28    5.3   337     9.9   828.4    0.00 
 214    9:20   0.58   80.6    26    6.1   332    10.9   828.4    0.00 
 214    9:30   0.41   80.7    26    4.4   359    10.1   828.3    0.00 
 214    9:40   0.45   80.5    27    4.9    12     8.7   828.3    0.00 
 214    9:50   0.57   81.1    27    4.5    15     8.8   828.2    0.00 
 214   10:00   0.74   82.7    25    5.8    18    10.8   828.2    0.00 
 214   10:10   0.93   83.4    22    5.6   354    13.6   828.2    0.00 
 214   10:20   0.96   84.3    23    6.4   347    12.0   828.3    0.00 
 214   10:30   0.99   84.7    22    6.9   358    14.0   828.2    0.00 
 214   10:40   0.86   84.3    21    7.2   357    13.2   828.1    0.00 
 214   10:50   0.74   84.6    20    5.3   349    11.8   828.1    0.00 
 214   11:00   0.45   83.3    22    4.5   318     9.4   828.0    0.00 
 214   11:10   0.73   84.4    19    2.9   326     6.4   828.0    0.00 
 214   11:20   0.67   85.6    19    4.6   330     8.5   828.0    0.00 
 214   11:30   0.95   86.5    17    2.3   349     6.9   827.9    0.00 
 214   11:40   0.89   86.9    17    4.9    25    10.5   827.8    0.00 
 214   11:50   1.20   88.7    15    2.1    94     4.5   827.8    0.00 
 214   12:00   0.48   87.4    16    3.1    13     6.4   827.7    0.00 
 214   12:10   0.32   85.6    18    3.2   347     9.1   827.6    0.00 
 214   12:20   0.24   83.6    20    3.2   356     7.5   827.6    0.00 
 214   12:30   0.21   84.1    20    2.3    46     4.7   827.6    0.00 
 214   12:40   0.20   84.2    17    2.5   105     5.1   827.5    0.00 
 214   12:50   0.20   82.7    23    3.9    47     6.6   827.4    0.00 
 214   13:00   0.18   81.1    25    2.5    53     4.8   827.3    0.00 
 214   13:10   0.19   82.7    23    1.2     2     2.4   827.2    0.00 
 214   13:20   0.22   83.6    22    1.6    24     3.9   827.1    0.00 
 214   13:30   0.22   83.0    23    2.6    35     5.9   827.0    0.00 
 214   13:40   0.22   83.8    17    6.3   176    11.1   827.0    0.00 
 214   13:50   0.23   84.2    17    7.8   178    12.3   827.0    0.00 
 214   14:00   0.22   84.0    18    8.2   169    11.6   826.9    0.00 
 214   14:10   0.21   83.1    19    7.3   159    10.7   826.9    0.00 
 214   14:20   0.29   83.8    19    9.6   169    15.5   826.7    0.00 
 214   14:30   0.35   84.2    19   11.2   170    16.1   826.7    0.00 
 214   14:40   0.26   83.8    20   13.3   167    20.6   826.8    0.00 
 214   14:50   0.23   82.4    20    9.7   155    17.6   826.9    0.00 
 214   15:00   0.22   82.2    19   10.7   154    20.6   826.9    0.00 
 214   15:10   0.23   82.5    18   11.4   147    21.9   826.8    0.00 
 214   15:20   0.20   82.3    19    8.7   152    14.8   826.9    0.00 
 214   15:30   0.16   82.1    20    7.4   164    14.9   827.0    0.00 
 214   15:40   0.17   80.8    22    8.3   247    16.5   827.1    0.00 
 214   15:50   0.18   77.6    27   13.8   272    20.4   826.8    0.00 
 214   16:00   0.17   77.4    27   11.9   279    21.1   826.7    0.00 
 214   16:10   0.16   76.7    28   13.0   272    21.5   826.7    0.00 
 214   16:20   0.12   76.7    28   12.4   264    21.1   826.7    0.00 
 214   16:30   0.10   76.0    28   10.2   271    18.9   826.8    0.00 
 214   16:40   0.09   76.1    29   10.4   275    18.2   826.8    0.00 
 214   16:50   0.07   76.4    28    7.2   254    14.9   826.8    0.00 
 214   17:00   0.05   77.6    25    2.4   136     7.2   826.8    0.00 
 214   17:10   0.05   77.7    25    2.1    54     4.2   826.9    0.00 
 214   17:20   0.04   76.6    28    3.0    60     6.8   826.9    0.00 
 214   17:30   0.03   75.4    29    2.2   132     3.0   826.8    0.00 
 214   17:40   0.03   75.5    29    3.1   174     6.9   826.8    0.00 
 214   17:50   0.03   75.6    28    4.0   174     6.9   826.8    0.00 
 214   18:00   0.02   76.3    26    7.9   241    22.7   826.8    0.00 
 214   18:10   0.02   77.3    23    6.3   242    15.4   826.9    0.00 
 214   18:20   0.02   77.7    23    2.2    75     5.0   827.0    0.00 
 214   18:30   0.01   74.1    29    5.6    86    13.0   827.2    0.00 
 214   18:40   0.01   73.1    30    5.4   126     9.5   827.3    0.00 
 214   18:50   0.00   72.4    32    6.1   137     9.3   827.4    0.00 
 214   19:00   0.00   72.3    32    3.9   219     6.7   827.5    0.00 
 214   19:10   0.00   72.4    31    1.8   147     4.2   827.5    0.00 

Return to North Spring Valley graphs page.


Western Regional Climate Center,wrcc@dri.edu